Time;durP1;ratioP1;P1;durP2;ratioP2;P2;SDS_P1;SDS_P2;PMS_P1;PMS_P2;Temp;Humidity;BMP_temperature;BMP_pressure;BME280_temperature;BME280_humidity;BME280_pressure;Samples;Min_cycle;Max_cycle;Signal;HPM_P1;HPM_P2
2022/04/19 00:01:50;;;;;;;0.50;0.50;;;5.90;79.10;;;;;;5073955;28;20865;-68
2022/04/19 00:04:38;;;;;;;0.50;0.50;;;5.80;79.60;;;;;;5074434;28;20932;-68
2022/04/19 00:07:26;;;;;;;0.60;0.60;;;5.80;80.00;;;;;;5074301;28;20463;-67
2022/04/19 00:10:15;;;;;;;0.50;0.50;;;5.70;80.90;;;;;;5074639;28;20420;-67
2022/04/19 00:13:06;;;;;;;0.50;0.50;;;5.70;81.30;;;;;;5074422;28;20419;-67
2022/04/19 00:15:55;;;;;;;0.47;0.47;;;5.60;82.10;;;;;;5074230;28;20443;-66
2022/04/19 00:18:49;;;;;;;0.50;0.50;;;5.60;82.60;;;;;;5073931;28;20805;-68
2022/04/19 00:21:37;;;;;;;0.53;0.53;;;5.70;83.40;;;;;;5074004;28;20434;-68
2022/04/19 00:24:25;;;;;;;0.50;0.50;;;5.70;83.90;;;;;;5074305;28;20853;-69
2022/04/19 00:27:15;;;;;;;0.50;0.50;;;5.60;84.70;;;;;;5073911;28;20435;-68
2022/04/19 00:30:04;;;;;;;0.50;0.50;;;5.80;85.30;;;;;;5073995;28;20423;-67
2022/04/19 00:32:52;;;;;;;0.40;0.40;;;5.70;86.10;;;;;;5073722;28;20415;-68
2022/04/19 00:35:40;;;;;;;0.40;0.40;;;5.70;86.80;;;;;;5073750;28;20455;-67
2022/04/19 00:38:28;;;;;;;0.50;0.50;;;5.60;87.60;;;;;;5074027;28;20520;-68
2022/04/19 00:41:17;;;;;;;0.50;0.50;;;5.50;88.30;;;;;;5073705;28;20868;-67
2022/04/19 00:44:07;;;;;;;0.50;0.50;;;5.50;89.60;;;;;;5074273;28;20420;-67
2022/04/19 00:46:56;;;;;;;0.50;0.50;;;5.50;90.10;;;;;;5073325;28;20447;-67
2022/04/19 00:49:44;;;;;;;0.50;0.50;;;5.40;90.70;;;;;;5073569;28;20435;-67
2022/04/19 00:52:33;;;;;;;0.63;0.53;;;5.40;91.20;;;;;;5073414;28;20427;-67
2022/04/19 00:55:21;;;;;;;0.50;0.50;;;5.30;91.70;;;;;;5073568;28;20431;-67
2022/04/19 00:58:11;;;;;;;0.50;0.50;;;5.30;92.10;;;;;;5073319;28;20479;-67
2022/04/19 01:01:01;;;;;;;1.10;1.10;;;5.30;92.60;;;;;;5073341;28;20430;-67
2022/04/19 01:03:49;;;;;;;0.50;0.50;;;5.30;93.10;;;;;;5073403;28;20472;-67
2022/04/19 01:06:37;;;;;;;1.07;0.77;;;5.40;93.50;;;;;;5073198;28;20435;-68
2022/04/19 01:09:26;;;;;;;0.50;0.50;;;5.40;93.80;;;;;;5073260;28;20427;-67
2022/04/19 01:15:21;;;;;;;0.50;0.50;;;5.40;94.30;;;;;;5073430;28;20447;-68
2022/04/19 01:18:11;;;;;;;0.50;0.50;;;5.50;94.80;;;;;;5073281;28;21053;-68
2022/04/19 01:20:59;;;;;;;0.50;0.50;;;5.50;95.10;;;;;;5073395;28;20430;-68
2022/04/19 01:23:49;;;;;;;0.50;0.50;;;5.50;95.30;;;;;;5072933;28;20480;-69
2022/04/19 01:26:37;;;;;;;0.50;0.50;;;5.50;95.60;;;;;;5072934;28;20477;-69
2022/04/19 01:29:27;;;;;;;0.50;0.50;;;5.60;95.70;;;;;;5073337;28;20427;-68
2022/04/19 01:32:17;;;;;;;0.50;0.50;;;5.60;95.80;;;;;;5065356;28;20435;-68
2022/04/19 01:35:07;;;;;;;0.50;0.50;;;5.60;96.00;;;;;;5067206;28;20416;-68
2022/04/19 01:37:55;;;;;;;0.40;0.40;;;5.60;96.20;;;;;;5072630;28;20455;-68
2022/04/19 01:40:44;;;;;;;0.50;0.50;;;5.50;96.50;;;;;;5072428;28;20991;-67
2022/04/19 01:43:33;;;;;;;0.50;0.50;;;5.50;96.90;;;;;;5072633;28;20826;-68
2022/04/19 01:46:23;;;;;;;1.57;1.47;;;5.40;97.30;;;;;;5071760;28;20498;-68
2022/04/19 01:49:12;;;;;;;0.50;0.50;;;5.30;97.70;;;;;;5072429;28;20429;-68
2022/04/19 01:52:01;;;;;;;0.50;0.50;;;5.20;98.30;;;;;;5072216;28;20457;-68
2022/04/19 01:54:49;;;;;;;0.50;0.50;;;5.10;98.90;;;;;;5072644;28;20431;-68
2022/04/19 01:57:38;;;;;;;0.50;0.50;;;5.00;99.60;;;;;;5072033;28;20469;-68
2022/04/19 02:00:29;;;;;;;0.50;0.50;;;5.00;99.90;;;;;;5071985;28;20423;-68
2022/04/19 02:03:18;;;;;;;0.47;0.47;;;4.90;99.90;;;;;;5071836;28;20435;-67
2022/04/19 02:06:08;;;;;;;0.50;0.50;;;4.70;99.90;;;;;;5071891;28;20442;-68
2022/04/19 02:08:56;;;;;;;0.40;0.40;;;4.80;99.90;;;;;;5077819;28;20442;-68
2022/04/19 02:11:44;;;;;;;0.50;0.50;;;4.80;99.90;;;;;;5080756;28;20501;-68
2022/04/19 02:14:33;;;;;;;0.50;0.50;;;4.70;99.90;;;;;;5079976;28;20854;-68
2022/04/19 02:17:23;;;;;;;0.40;0.40;;;4.70;99.90;;;;;;5081063;28;20584;-68
2022/04/19 02:20:13;;;;;;;0.40;0.40;;;4.70;99.90;;;;;;5082958;28;20423;-69
2022/04/19 02:23:01;;;;;;;0.40;0.40;;;4.70;99.90;;;;;;5081838;28;20457;-69
2022/04/19 02:25:51;;;;;;;0.50;0.50;;;4.70;99.90;;;;;;5082589;28;20881;-68
2022/04/19 02:28:39;;;;;;;0.50;0.50;;;4.70;99.90;;;;;;5083713;28;20423;-69
2022/04/19 02:31:29;;;;;;;0.50;0.50;;;4.60;99.90;;;;;;5082485;28;20450;-69
2022/04/19 02:34:18;;;;;;;0.50;0.50;;;4.60;99.90;;;;;;5084940;28;20503;-68
2022/04/19 02:37:06;;;;;;;0.50;0.50;;;4.50;99.90;;;;;;5072383;28;20541;-68
2022/04/19 02:39:54;;;;;;;0.50;0.50;;;4.50;99.90;;;;;;5072295;28;20430;-68
2022/04/19 02:42:42;;;;;;;0.50;0.50;;;4.50;99.90;;;;;;5071818;28;20943;-68
2022/04/19 02:45:30;;;;;;;0.50;0.50;;;4.40;99.90;;;;;;5072276;28;20995;-68
2022/04/19 02:48:21;;;;;;;0.50;0.50;;;4.40;99.90;;;;;;5071838;28;20975;-68
2022/04/19 02:51:09;;;;;;;1.13;0.70;;;4.30;99.90;;;;;;5071752;28;20424;-68
2022/04/19 02:53:57;;;;;;;0.50;0.50;;;4.30;99.90;;;;;;5071639;28;20453;-67
2022/04/19 02:56:45;;;;;;;0.50;0.50;;;4.30;99.90;;;;;;5071864;28;20446;-68
2022/04/19 02:59:33;;;;;;;0.50;0.50;;;4.20;99.90;;;;;;5071555;28;20427;-68
2022/04/19 03:02:22;;;;;;;0.50;0.50;;;4.20;99.90;;;;;;5071309;28;20431;-68
2022/04/19 03:05:11;;;;;;;0.50;0.50;;;4.20;99.90;;;;;;5071594;28;20416;-68
2022/04/19 03:07:59;;;;;;;1.23;1.23;;;4.20;99.90;;;;;;5071911;28;20502;-67
2022/04/19 03:10:49;;;;;;;0.50;0.50;;;4.10;99.90;;;;;;5071448;28;20433;-67
2022/04/19 03:13:37;;;;;;;0.40;0.40;;;4.10;99.90;;;;;;5071113;28;20415;-68
2022/04/19 03:16:26;;;;;;;0.50;0.50;;;4.10;99.90;;;;;;5071016;28;20436;-67
2022/04/19 03:19:14;;;;;;;0.50;0.50;;;4.00;99.90;;;;;;5071330;28;20671;-67
2022/04/19 03:22:04;;;;;;;0.50;0.50;;;4.00;99.90;;;;;;5071014;28;20459;-69
2022/04/19 03:27:58;;;;;;;0.50;0.50;;;3.90;99.90;;;;;;5070974;28;20462;-68
2022/04/19 03:30:46;;;;;;;0.50;0.50;;;3.80;99.90;;;;;;5071314;28;20458;-68
2022/04/19 03:33:36;;;;;;;0.50;0.50;;;3.80;99.90;;;;;;5071294;28;21176;-67
2022/04/19 03:36:24;;;;;;;0.60;0.60;;;3.70;99.90;;;;;;5071269;28;20508;-68
2022/04/19 03:39:13;;;;;;;0.80;0.80;;;3.70;99.90;;;;;;5071845;28;21089;-67
2022/04/19 03:42:01;;;;;;;0.50;0.50;;;3.70;99.90;;;;;;5071101;28;21097;-68
2022/04/19 03:44:49;;;;;;;0.50;0.50;;;3.70;99.90;;;;;;5071166;28;20419;-68
2022/04/19 03:47:38;;;;;;;0.50;0.50;;;3.60;99.90;;;;;;5071497;28;20415;-69
2022/04/19 03:50:26;;;;;;;1.70;0.60;;;3.60;99.90;;;;;;5071622;28;20562;-68
2022/04/19 03:53:14;;;;;;;0.40;0.40;;;3.60;99.90;;;;;;5072821;28;20496;-68
2022/04/19 03:56:04;;;;;;;0.50;0.50;;;3.60;99.90;;;;;;5074527;28;20902;-68
2022/04/19 03:58:52;;;;;;;0.50;0.50;;;3.50;99.90;;;;;;5075209;28;20516;-68
2022/04/19 04:01:40;;;;;;;0.50;0.50;;;3.50;99.90;;;;;;5074218;28;20488;-68
2022/04/19 04:04:31;;;;;;;0.40;0.40;;;3.40;99.90;;;;;;5074746;28;20776;-68
2022/04/19 04:07:19;;;;;;;0.50;0.50;;;3.40;99.90;;;;;;5074624;28;20443;-67
2022/04/19 04:10:07;;;;;;;0.60;0.60;;;3.40;99.90;;;;;;5074589;28;20419;-68
2022/04/19 04:12:59;;;;;;;0.50;0.50;;;3.50;99.90;;;;;;5074932;28;20476;-67
2022/04/19 04:15:48;;;;;;;0.50;0.50;;;3.50;99.90;;;;;;5074388;28;20443;-67
2022/04/19 04:18:39;;;;;;;0.50;0.50;;;3.50;99.90;;;;;;5074235;28;20845;-68
2022/04/19 04:21:27;;;;;;;0.50;0.50;;;3.50;99.90;;;;;;5073751;28;20928;-68
2022/04/19 04:24:15;;;;;;;0.50;0.50;;;3.50;99.90;;;;;;5074530;28;20427;-67
2022/04/19 04:27:04;;;;;;;1.83;1.73;;;3.50;99.90;;;;;;5074031;28;20580;-67
2022/04/19 04:29:53;;;;;;;0.50;0.50;;;3.60;99.90;;;;;;5074159;28;20419;-68
2022/04/19 04:32:42;;;;;;;0.50;0.50;;;3.60;99.90;;;;;;5073916;28;20427;-68
2022/04/19 04:35:30;;;;;;;0.40;0.40;;;3.70;99.90;;;;;;5073872;28;20423;-67
2022/04/19 04:38:18;;;;;;;0.50;0.50;;;3.70;99.90;;;;;;5074169;28;20961;-68
2022/04/19 04:41:07;;;;;;;9.77;9.07;;;3.80;99.90;;;;;;5073818;28;21028;-67
2022/04/19 04:43:55;;;;;;;0.40;0.40;;;3.70;99.90;;;;;;5073782;28;20494;-68
2022/04/19 04:49:50;;;;;;;0.50;0.50;;;3.80;99.90;;;;;;5074420;28;20423;-68
2022/04/19 04:52:38;;;;;;;0.50;0.50;;;3.80;99.90;;;;;;5072980;28;20820;-68
2022/04/19 04:55:26;;;;;;;0.50;0.50;;;3.90;99.90;;;;;;5073897;28;20978;-67
2022/04/19 04:58:14;;;;;;;0.50;0.50;;;3.90;99.90;;;;;;5073244;28;20983;-68
2022/04/19 05:01:02;;;;;;;0.60;0.60;;;4.00;99.90;;;;;;5073574;28;20431;-68
2022/04/19 05:03:52;;;;;;;0.50;0.50;;;4.00;99.90;;;;;;5073294;28;20954;-67
2022/04/19 05:06:41;;;;;;;0.50;0.50;;;4.00;99.90;;;;;;5073328;28;20467;-68
2022/04/19 05:09:29;;;;;;;0.50;0.50;;;4.00;99.90;;;;;;5073388;28;20419;-67
2022/04/19 05:12:17;;;;;;;0.50;0.50;;;4.10;99.90;;;;;;5073017;28;20427;-67
2022/04/19 05:15:06;;;;;;;0.50;0.50;;;4.10;99.90;;;;;;5073821;28;20427;-67
2022/04/19 05:17:54;;;;;;;0.50;0.50;;;4.20;99.90;;;;;;5073185;28;20427;-68
2022/04/19 05:20:44;;;;;;;0.60;0.60;;;4.20;99.90;;;;;;5072995;28;20445;-68
2022/04/19 05:23:32;;;;;;;0.50;0.50;;;4.30;99.90;;;;;;5073048;28;20422;-68
2022/04/19 05:26:20;;;;;;;1.00;0.60;;;4.40;99.90;;;;;;5073038;28;20443;-68
2022/04/19 05:29:08;;;;;;;1.70;1.03;;;4.40;99.90;;;;;;5073267;28;20489;-68
2022/04/19 05:31:56;;;;;;;0.50;0.50;;;4.50;99.90;;;;;;5073300;28;20426;-68
2022/04/19 05:34:44;;;;;;;0.50;0.50;;;4.60;99.90;;;;;;5072617;28;20769;-68
2022/04/19 05:37:36;;;;;;;3.90;3.70;;;4.60;99.90;;;;;;5072910;28;20504;-69
2022/04/19 05:40:24;;;;;;;0.50;0.50;;;4.70;99.90;;;;;;5072585;28;20808;-70
2022/04/19 05:43:12;;;;;;;0.50;0.50;;;4.70;99.90;;;;;;5072046;28;20504;-68
2022/04/19 05:46:00;;;;;;;0.50;0.50;;;4.80;99.90;;;;;;5072350;28;20524;-68
2022/04/19 05:48:49;;;;;;;0.60;0.60;;;4.90;99.90;;;;;;5072700;28;20998;-71
2022/04/19 05:51:37;;;;;;;0.90;0.87;;;4.90;99.90;;;;;;5074059;28;20502;-70
2022/04/19 05:54:27;;;;;;;0.40;0.40;;;5.00;99.90;;;;;;5080772;28;20426;-70
2022/04/19 05:57:15;;;;;;;0.50;0.50;;;5.10;99.90;;;;;;5074035;28;20455;-71
2022/04/19 06:00:04;;;;;;;0.50;0.50;;;5.20;99.90;;;;;;5093551;28;20497;-70
2022/04/19 06:05:58;;;;;;;0.50;0.50;;;5.40;99.90;;;;;;5063703;28;20546;-70
2022/04/19 06:08:46;;;;;;;0.50;0.50;;;5.40;99.90;;;;;;5073602;28;20408;-70
2022/04/19 06:11:36;;;;;;;1.17;1.07;;;5.40;99.90;;;;;;5058716;28;20432;-69
2022/04/19 06:14:24;;;;;;;0.50;0.50;;;5.50;99.90;;;;;;5055102;28;20456;-68
2022/04/19 06:17:14;;;;;;;0.50;0.50;;;5.50;99.90;;;;;;5056248;28;20521;-68
2022/04/19 06:20:04;;;;;;;0.50;0.50;;;5.60;99.90;;;;;;5054457;28;20456;-69
2022/04/19 06:22:52;;;;;;;0.50;0.50;;;5.60;99.90;;;;;;5053452;28;20460;-69
2022/04/19 06:25:41;;;;;;;0.50;0.50;;;5.70;99.90;;;;;;5054772;28;20451;-68
2022/04/19 06:28:30;;;;;;;0.50;0.50;;;5.70;99.90;;;;;;5073967;28;20415;-70
2022/04/19 06:31:18;;;;;;;0.50;0.50;;;5.80;99.90;;;;;;5077559;28;20421;-68
2022/04/19 06:34:11;;;;;;;0.50;0.50;;;5.90;99.90;;;;;;5073887;28;20411;-70
2022/04/19 06:36:59;;;;;;;2.00;1.80;;;5.90;99.90;;;;;;5071689;28;20471;-70
2022/04/19 06:39:47;;;;;;;0.50;0.50;;;6.00;99.90;;;;;;5073734;28;20459;-70
2022/04/19 06:42:36;;;;;;;0.50;0.50;;;6.00;99.90;;;;;;5073320;28;20952;-70
2022/04/19 06:45:25;;;;;;;0.47;0.47;;;6.10;99.90;;;;;;5075993;28;20431;-70
2022/04/19 06:48:14;;;;;;;0.50;0.50;;;6.20;99.90;;;;;;5075746;28;20428;-71
2022/04/19 06:51:02;;;;;;;1.17;1.17;;;6.30;99.90;;;;;;5055656;28;20937;-69
2022/04/19 06:54:11;;;;;;;0.60;0.60;;;6.40;99.90;;;;;;5055325;28;20430;-70
2022/04/19 06:56:59;;;;;;;1.10;1.10;;;6.50;99.90;;;;;;5058202;28;20444;-71
2022/04/19 06:59:47;;;;;;;0.50;0.50;;;6.60;99.90;;;;;;5055747;28;20464;-71
2022/04/19 07:02:37;;;;;;;0.50;0.50;;;6.60;99.90;;;;;;5072163;28;20470;-69
2022/04/19 07:05:25;;;;;;;0.50;0.50;;;6.70;99.90;;;;;;5074538;28;20430;-69
2022/04/19 07:08:13;;;;;;;1.80;1.70;;;6.80;99.90;;;;;;5074085;28;20423;-69
2022/04/19 07:11:01;;;;;;;0.50;0.50;;;6.90;99.90;;;;;;5076117;28;20872;-71
2022/04/19 07:13:49;;;;;;;0.50;0.50;;;7.00;99.90;;;;;;5075693;28;20443;-70
2022/04/19 07:16:38;;;;;;;0.50;0.50;;;7.10;99.90;;;;;;5075830;28;20455;-70
2022/04/19 07:26:37;;;;;;;0.40;0.40;;;7.20;99.90;;;;;;5077261;28;20459;-70
2022/04/19 07:28:48;;;;;;;0.50;0.50;;;7.60;99.90;;;;;;5073183;28;20423;-70
2022/04/19 07:31:36;;;;;;;0.50;0.50;;;7.60;99.90;;;;;;5076535;28;21011;-70
2022/04/19 07:34:25;;;;;;;0.60;0.60;;;7.80;99.90;;;;;;5059540;28;20432;-70
2022/04/19 07:37:14;;;;;;;1.10;1.00;;;7.80;99.90;;;;;;5059440;28;20452;-70
2022/04/19 07:40:04;;;;;;;0.40;0.40;;;7.90;99.90;;;;;;5058592;28;20463;-68
2022/04/19 07:42:53;;;;;;;0.50;0.50;;;8.00;99.90;;;;;;5057109;28;20489;-69
2022/04/19 07:45:41;;;;;;;8.80;3.20;;;8.00;99.90;;;;;;5059535;28;20486;-69
2022/04/19 07:48:29;;;;;;;0.50;0.50;;;8.10;99.90;;;;;;5060449;28;20475;-70
2022/04/19 07:51:17;;;;;;;0.40;0.40;;;8.20;99.90;;;;;;5067177;28;20419;-70
2022/04/19 07:54:07;;;;;;;0.70;0.63;;;8.30;99.90;;;;;;5079984;28;20947;-70
2022/04/19 07:56:55;;;;;;;0.50;0.50;;;8.30;99.90;;;;;;5080082;28;20444;-69
2022/04/19 07:59:43;;;;;;;0.50;0.50;;;8.40;99.90;;;;;;5079122;28;20435;-69
2022/04/19 08:02:31;;;;;;;0.50;0.50;;;8.50;99.90;;;;;;5079709;28;20451;-69
2022/04/19 08:05:20;;;;;;;0.50;0.50;;;8.60;99.90;;;;;;5080278;28;20419;-70
2022/04/19 08:08:08;;;;;;;0.40;0.40;;;8.60;99.90;;;;;;5078907;28;20459;-70
2022/04/19 08:10:58;;;;;;;0.43;0.43;;;8.70;99.90;;;;;;5059572;28;20485;-71
2022/04/19 08:13:46;;;;;;;1.07;1.07;;;8.80;99.90;;;;;;5059066;28;20877;-70
2022/04/19 08:16:34;;;;;;;0.50;0.50;;;8.90;99.90;;;;;;5059093;28;20452;-70
2022/04/19 08:19:22;;;;;;;0.47;0.47;;;8.90;99.90;;;;;;5060221;28;20431;-70
2022/04/19 08:22:10;;;;;;;0.40;0.40;;;9.00;99.90;;;;;;5059392;28;20417;-70
2022/04/19 08:24:59;;;;;;;0.50;0.50;;;9.20;99.90;;;;;;5057769;28;20842;-70
2022/04/19 08:27:51;;;;;;;0.50;0.50;;;9.30;99.90;;;;;;5070573;28;20810;-69
2022/04/19 08:30:39;;;;;;;0.50;0.50;;;9.40;99.90;;;;;;5079966;28;20496;-71
2022/04/19 08:33:28;;;;;;;0.50;0.50;;;9.40;99.70;;;;;;5078956;28;20470;-70
2022/04/19 08:36:16;;;;;;;0.40;0.40;;;9.50;99.90;;;;;;5079745;28;20518;-73
2022/04/19 08:39:04;;;;;;;0.50;0.50;;;9.50;99.90;;;;;;5078806;28;20458;-72
2022/04/19 08:41:52;;;;;;;0.70;0.70;;;9.70;99.90;;;;;;5079279;28;20455;-72
2022/04/19 08:44:41;;;;;;;0.50;0.50;;;9.80;98.20;;;;;;5078024;28;20477;-72
2022/04/19 08:47:32;;;;;;;0.50;0.50;;;9.80;97.60;;;;;;5077353;28;20443;-70
2022/04/19 08:50:21;;;;;;;1.00;0.77;;;9.90;97.10;;;;;;5077490;28;20423;-72
2022/04/19 08:59:28;;;;;;;1.13;1.13;;;10.10;95.40;;;;;;5078271;28;20427;-71
2022/04/19 09:02:23;;;;;;;0.50;0.50;;;10.20;95.10;;;;;;5074758;28;21080;-72
2022/04/19 09:05:16;;;;;;;0.40;0.40;;;10.30;94.10;;;;;;5083599;28;20431;-70
2022/04/19 09:08:13;;;;;;;0.50;0.50;;;10.40;94.30;;;;;;5058012;28;20514;-70
2022/04/19 09:11:06;;;;;;;0.47;0.47;;;10.50;94.80;;;;;;5057998;28;20428;-70
2022/04/19 09:14:05;;;;;;;0.50;0.50;;;10.60;94.40;;;;;;5059733;28;20428;-70
2022/04/19 09:17:03;;;;;;;0.40;0.40;;;10.70;94.00;;;;;;5058674;28;20532;-72
2022/04/19 09:19:53;;;;;;;0.43;0.43;;;10.90;94.20;;;;;;5068809;28;20423;-70
2022/04/19 09:22:42;;;;;;;0.40;0.40;;;10.90;93.40;;;;;;5078225;28;20416;-72
2022/04/19 09:25:30;;;;;;;0.50;0.50;;;11.00;92.90;;;;;;5077820;28;20475;-71
2022/04/19 09:28:20;;;;;;;0.73;0.73;;;11.00;92.70;;;;;;5078050;28;20439;-72
2022/04/19 09:31:11;;;;;;;0.60;0.60;;;11.10;92.70;;;;;;5058703;28;20424;-71
2022/04/19 09:34:00;;;;;;;0.40;0.40;;;11.10;91.70;;;;;;5057898;28;20443;-72
2022/04/19 09:36:54;;;;;;;0.50;0.50;;;11.10;91.20;;;;;;5057435;28;20452;-68
2022/04/19 09:39:44;;;;;;;0.60;0.60;;;11.20;90.90;;;;;;5058287;28;20481;-71
2022/04/19 09:42:33;;;;;;;1.77;1.67;;;11.30;90.90;;;;;;5058357;28;20468;-71
2022/04/19 09:45:21;;;;;;;0.50;0.50;;;11.30;90.40;;;;;;5058368;28;20432;-71
2022/04/19 09:48:16;;;;;;;0.83;0.60;;;11.40;90.10;;;;;;5058629;28;21067;-70
2022/04/19 09:51:06;;;;;;;0.50;0.50;;;11.40;90.00;;;;;;5057788;28;20424;-71
2022/04/19 09:53:55;;;;;;;0.40;0.40;;;11.40;90.10;;;;;;5059332;28;20439;-73
2022/04/19 09:56:43;;;;;;;0.47;0.47;;;11.60;90.30;;;;;;5077401;28;20454;-73
2022/04/19 09:59:39;;;;;;;0.50;0.50;;;11.70;90.70;;;;;;5087045;28;20808;-72
2022/04/19 10:08:41;;;;;;;0.60;0.60;;;11.90;90.20;;;;;;5076357;28;20493;-69
2022/04/19 10:11:31;;;;;;;0.47;0.47;;;12.00;89.80;;;;;;5078310;28;20426;-71
2022/04/19 10:14:19;;;;;;;0.40;0.40;;;12.00;90.10;;;;;;5076611;28;20419;-73
2022/04/19 10:17:07;;;;;;;0.43;0.43;;;12.10;88.40;;;;;;5077839;28;20485;-70
2022/04/19 10:19:59;;;;;;;0.60;0.60;;;12.10;86.90;;;;;;5077297;28;20423;-73
2022/04/19 10:22:48;;;;;;;0.50;0.50;;;12.10;86.20;;;;;;5075907;28;20524;-73
2022/04/19 10:25:43;;;;;;;0.40;0.40;;;12.20;84.40;;;;;;5075580;28;20448;-70
2022/04/19 10:28:33;;;;;;;0.50;0.50;;;12.20;85.10;;;;;;5075763;28;20423;-71
2022/04/19 10:31:35;;;;;;;0.50;0.50;;;12.20;84.50;;;;;;5076126;28;20476;-71
2022/04/19 10:34:27;;;;;;;0.40;0.40;;;12.30;84.80;;;;;;5076699;28;20423;-72
2022/04/19 10:37:23;;;;;;;0.50;0.50;;;12.40;84.70;;;;;;5076535;28;20495;-73
2022/04/19 10:40:14;;;;;;;0.40;0.40;;;12.50;84.20;;;;;;5076453;28;20427;-73
2022/04/19 10:43:15;;;;;;;0.40;0.40;;;12.60;83.80;;;;;;5076586;28;20459;-70
2022/04/19 10:46:22;;;;;;;0.40;0.40;;;12.70;82.60;;;;;;5076998;28;20447;-72
2022/04/19 10:49:22;;;;;;;0.50;0.50;;;12.90;81.50;;;;;;5076312;28;20427;-72
2022/04/19 10:52:44;;;;;;;0.40;0.40;;;13.00;78.60;;;;;;5077281;28;20925;-70
2022/04/19 10:55:33;;;;;;;0.40;0.40;;;13.30;80.20;;;;;;5077684;28;20864;-70
2022/04/19 10:58:21;;;;;;;0.50;0.50;;;13.30;79.90;;;;;;5085061;28;20483;-70
2022/04/19 11:01:29;;;;;;;0.50;0.50;;;13.50;78.40;;;;;;5097691;28;20429;-71
2022/04/19 11:04:36;;;;;;;0.63;0.63;;;13.50;78.40;;;;;;5076359;28;20904;-72
2022/04/19 11:07:41;;;;;;;0.40;0.40;;;13.60;77.10;;;;;;5061452;28;20450;-69
2022/04/19 11:10:38;;;;;;;0.63;0.63;;;13.60;77.40;;;;;;5059611;28;20231;-71
2022/04/19 11:13:27;;;;;;;1.20;0.50;;;13.60;76.60;;;;;;5062398;28;20201;-71
2022/04/19 11:16:15;;;;;;;0.50;0.50;;;13.60;76.50;;;;;;5060883;28;20212;-70
2022/04/19 11:19:14;;;;;;;0.40;0.40;;;13.80;76.70;;;;;;5062764;28;20205;-72
2022/04/19 11:22:29;;;;;;;0.50;0.50;;;14.20;76.80;;;;;;5061565;28;20225;-71
2022/04/19 11:25:38;;;;;;;0.50;0.50;;;14.70;75.60;;;;;;5060665;28;20216;-72
2022/04/19 11:28:30;;;;;;;0.50;0.50;;;15.20;74.30;;;;;;5059771;28;20309;-69
2022/04/19 11:31:18;;;;;;;0.50;0.50;;;15.50;74.60;;;;;;5060249;28;20213;-71
2022/04/19 11:34:12;;;;;;;0.50;0.50;;;15.60;72.50;;;;;;5059756;28;20719;-70
2022/04/19 11:37:02;;;;;;;0.50;0.50;;;15.30;71.00;;;;;;5058551;28;20283;-67
2022/04/19 11:49:09;;;;;;;0.40;0.40;;;16.30;70.60;;;;;;5056706;28;20193;-68
2022/04/19 11:52:01;;;;;;;0.40;0.40;;;16.50;69.70;;;;;;5057092;28;20284;-69
2022/04/19 11:54:55;;;;;;;0.50;0.50;;;16.40;68.80;;;;;;5056427;28;20259;-67
2022/04/19 11:57:43;;;;;;;2.35;0.70;;;16.20;69.00;;;;;;5056814;28;20208;-69
2022/04/19 12:00:31;;;;;;;0.40;0.40;;;15.80;69.80;;;;;;5056778;28;20678;-69
2022/04/19 12:03:27;;;;;;;0.40;0.40;;;15.60;69.70;;;;;;5056679;28;20708;-68
2022/04/19 12:06:22;;;;;;;0.40;0.40;;;15.50;68.80;;;;;;5056000;28;20705;-67
2022/04/19 12:09:15;;;;;;;1.17;1.07;;;15.40;70.10;;;;;;5056771;28;20255;-68
2022/04/19 12:12:06;;;;;;;0.40;0.40;;;15.50;68.90;;;;;;5055880;28;20228;-69
2022/04/19 12:14:54;;;;;;;0.40;0.40;;;15.60;69.50;;;;;;5056548;28;20221;-67
2022/04/19 12:17:45;;;;;;;0.40;0.40;;;15.60;69.20;;;;;;5056704;28;20205;-68
2022/04/19 12:20:42;;;;;;;0.40;0.40;;;15.70;69.50;;;;;;5055765;28;20201;-68
2022/04/19 12:23:31;;;;;;;0.40;0.40;;;15.50;67.90;;;;;;5055977;28;20224;-68
2022/04/19 12:26:22;;;;;;;0.47;0.47;;;15.20;68.80;;;;;;5055872;28;20308;-70
2022/04/19 12:29:13;;;;;;;0.40;0.40;;;15.30;70.00;;;;;;5056512;28;20205;-69
2022/04/19 12:32:02;;;;;;;0.40;0.40;;;15.50;71.50;;;;;;5055933;28;20274;-68
2022/04/19 12:34:51;;;;;;;1.52;0.82;;;15.90;70.90;;;;;;5055433;28;20618;-68
2022/04/19 12:37:39;;;;;;;0.40;0.40;;;16.00;67.90;;;;;;5056286;28;20674;-69
2022/04/19 12:40:28;;;;;;;0.40;0.40;;;16.10;67.70;;;;;;5055755;28;20201;-69
2022/04/19 12:43:18;;;;;;;0.50;0.50;;;16.40;68.20;;;;;;5055997;28;20289;-69
2022/04/19 12:46:07;;;;;;;0.43;0.43;;;16.20;66.70;;;;;;5055810;28;20704;-68
2022/04/19 12:48:56;;;;;;;0.50;0.50;;;16.20;67.20;;;;;;5055560;28;20239;-70
2022/04/19 12:51:58;;;;;;;0.50;0.50;;;17.00;67.60;;;;;;5053205;28;20205;-71
2022/04/19 12:54:50;;;;;;;0.40;0.40;;;18.30;65.60;;;;;;5053395;28;20724;-68
2022/04/19 12:57:42;;;;;;;0.40;0.40;;;19.20;64.60;;;;;;5054219;28;20229;-68
2022/04/19 13:00:31;;;;;;;0.80;0.80;;;20.50;64.10;;;;;;5054566;28;20251;-70
2022/04/19 13:03:20;;;;;;;0.40;0.40;;;22.20;60.10;;;;;;5054041;28;20719;-68
2022/04/19 13:12:24;;;;;;;3.17;0.60;;;18.90;60.40;;;;;;5052723;28;20205;-69
2022/04/19 13:15:13;;;;;;;0.68;0.68;;;17.60;61.60;;;;;;5054600;28;20284;-71
2022/04/19 13:18:03;;;;;;;0.40;0.40;;;16.90;62.00;;;;;;5055115;28;20205;-71
2022/04/19 13:20:51;;;;;;;0.60;0.57;;;18.20;63.60;;;;;;5052234;28;20201;-70
2022/04/19 13:23:39;;;;;;;0.40;0.40;;;21.90;61.70;;;;;;5053587;28;20249;-70
2022/04/19 13:26:28;;;;;;;0.40;0.40;;;24.20;55.50;;;;;;5053831;28;20225;-68
2022/04/19 13:29:16;;;;;;;0.40;0.40;;;23.80;54.00;;;;;;5035272;28;20205;-71
2022/04/19 13:32:05;;;;;;;0.40;0.40;;;22.00;55.10;;;;;;5051956;28;20197;-70
2022/04/19 13:34:54;;;;;;;0.65;0.65;;;22.20;57.10;;;;;;5053163;28;20275;-69
2022/04/19 13:40:48;;;;;;;0.80;0.70;;;23.40;53.20;;;;;;5053829;28;20228;-69
2022/04/19 13:43:37;;;;;;;0.40;0.40;;;24.60;51.50;;;;;;5053434;28;20267;-68
2022/04/19 13:46:25;;;;;;;0.40;0.40;;;24.80;52.30;;;;;;5053122;28;20221;-68
2022/04/19 13:49:14;;;;;;;0.40;0.40;;;25.70;50.40;;;;;;5052702;28;20201;-69
2022/04/19 13:52:04;;;;;;;0.50;0.50;;;25.20;49.60;;;;;;5052031;28;20233;-68
2022/04/19 13:54:52;;;;;;;0.40;0.40;;;24.60;49.60;;;;;;5051887;28;20200;-68
2022/04/19 13:57:41;;;;;;;0.50;0.50;;;22.50;49.60;;;;;;5052473;28;20225;-71
2022/04/19 14:00:29;;;;;;;0.50;0.50;;;21.10;50.60;;;;;;5051643;28;20209;-72
2022/04/19 14:03:17;;;;;;;0.40;0.40;;;20.20;52.30;;;;;;5051995;28;20306;-70
2022/04/19 14:06:06;;;;;;;0.40;0.40;;;19.80;52.60;;;;;;5052138;28;20228;-69
2022/04/19 14:08:56;;;;;;;0.40;0.40;;;19.80;53.40;;;;;;5050398;28;20232;-71
2022/04/19 14:11:45;;;;;;;0.60;0.60;;;19.90;53.60;;;;;;5051739;28;20249;-69
2022/04/19 14:14:34;;;;;;;0.50;0.50;;;18.90;54.00;;;;;;5051670;28;20279;-70
2022/04/19 14:17:23;;;;;;;0.60;0.60;;;18.30;55.40;;;;;;5052472;28;20221;-70
2022/04/19 14:20:11;;;;;;;0.40;0.40;;;18.30;55.30;;;;;;5052563;28;20279;-71
2022/04/19 14:22:59;;;;;;;0.40;0.40;;;18.00;56.50;;;;;;5051644;28;20228;-71
2022/04/19 14:25:49;;;;;;;0.40;0.40;;;19.00;54.80;;;;;;5051870;28;20217;-70
2022/04/19 14:34:49;;;;;;;2.78;1.95;;;22.80;50.40;;;;;;5051825;28;20616;-68
2022/04/19 14:37:37;;;;;;;1.08;1.02;;;22.60;50.10;;;;;;5050631;28;20653;-69
2022/04/19 14:40:25;;;;;;;0.40;0.40;;;22.40;50.90;;;;;;5051116;28;20305;-69
2022/04/19 14:43:14;;;;;;;0.40;0.40;;;23.10;50.70;;;;;;5052601;28;20221;-67
2022/04/19 14:46:03;;;;;;;0.40;0.40;;;24.30;50.00;;;;;;5052860;28;20220;-68
2022/04/19 14:48:51;;;;;;;0.40;0.40;;;25.50;48.20;;;;;;5053662;28;20200;-68
2022/04/19 14:54:46;;;;;;;0.40;0.40;;;25.90;46.80;;;;;;5052423;28;20247;-68
2022/04/19 14:57:34;;;;;;;0.43;0.43;;;23.60;48.50;;;;;;5051528;28;20217;-69
2022/04/19 15:00:24;;;;;;;0.50;0.50;;;21.10;50.80;;;;;;5051730;28;20617;-71
2022/04/19 15:03:12;;;;;;;0.50;0.50;;;19.20;53.30;;;;;;5051579;28;20232;-70
2022/04/19 15:06:00;;;;;;;0.90;0.77;;;18.30;54.80;;;;;;5052974;28;20229;-68
2022/04/19 15:08:49;;;;;;;0.80;0.52;;;17.80;55.40;;;;;;5053668;28;20738;-71
2022/04/19 15:11:37;;;;;;;0.50;0.50;;;18.10;56.10;;;;;;5051094;28;20205;-70
2022/04/19 15:14:25;;;;;;;0.40;0.40;;;18.80;55.10;;;;;;5051627;28;20201;-70
2022/04/19 15:17:15;;;;;;;0.40;0.40;;;21.10;53.50;;;;;;5050795;28;20306;-70
2022/04/19 15:20:03;;;;;;;0.40;0.40;;;21.60;50.90;;;;;;5051452;28;20208;-70
2022/04/19 15:22:52;;;;;;;0.40;0.40;;;22.70;51.00;;;;;;5051853;28;20263;-68
2022/04/19 15:25:40;;;;;;;0.40;0.40;;;23.70;50.70;;;;;;5051596;28;20225;-68
2022/04/19 15:28:28;;;;;;;0.50;0.50;;;24.50;48.90;;;;;;5052462;28;20201;-69
2022/04/19 15:31:17;;;;;;;0.40;0.40;;;23.90;46.90;;;;;;5051954;28;20198;-74
2022/04/19 15:34:06;;;;;;;0.40;0.40;;;23.80;47.50;;;;;;5052048;28;20201;-70
2022/04/19 15:36:54;;;;;;;0.50;0.50;;;24.60;48.30;;;;;;5051262;28;20236;-69
2022/04/19 15:39:42;;;;;;;0.52;0.52;;;25.60;47.80;;;;;;5052207;28;20279;-69
2022/04/19 15:42:31;;;;;;;0.40;0.40;;;26.00;47.20;;;;;;5051876;28;20804;-70
2022/04/19 15:45:19;;;;;;;0.40;0.40;;;26.10;47.30;;;;;;5051650;28;20217;-68
2022/04/19 15:48:07;;;;;;;0.40;0.40;;;26.20;46.30;;;;;;5053586;28;20276;-68
2022/04/19 15:50:56;;;;;;;0.40;0.40;;;26.70;45.30;;;;;;5054632;28;20197;-69